SCOT35 YBOK-YBOK
Flight info
| Callsign | SCOT35 |
|---|---|
| Flight time | 0h 1m |
| Altitude | 4500 |
| Route | OK DCT ACLD DCT OK |
| Aircraft | EC35/L-SDFGRY/C |
Departure
| Time | 2026-04-15 01:31 |
|---|---|
| Airport | Oakey Army Aviation Centre (YBOK) |
Arrival
| Time | 2026-04-15 01:33 |
|---|---|
| Airport | Oakey Army Aviation Centre (YBOK) |
| Time | Latitude | Longitude | Altitude | Speed | Heading |
|---|---|---|---|---|---|
| 2026-04-15 01:06 | -27.41124 | 151.73482 | 1345 ft | 0 kts | 25° |
| 2026-04-15 01:11 | -27.41119 | 151.73484 | 1366 ft | 3 kts | 24° |
| 2026-04-15 01:12 | -27.41087 | 151.73498 | 1347 ft | 6 kts | 350° |
| 2026-04-15 01:12 | -27.41061 | 151.73488 | 1352 ft | 3 kts | 287° |
| 2026-04-15 01:12 | -27.41060 | 151.73484 | 1352 ft | 1 kts | 281° |
| 2026-04-15 01:12 | -27.41059 | 151.73483 | 1352 ft | 0 kts | 276° |
| 2026-04-15 01:13 | -27.41055 | 151.73463 | 1363 ft | 15 kts | 279° |
| 2026-04-15 01:13 | -27.41007 | 151.73148 | 1443 ft | 68 kts | 281° |
| 2026-04-15 01:13 | -27.40904 | 151.72520 | 1485 ft | 89 kts | 290° |
| 2026-04-15 01:13 | -27.40451 | 151.72476 | 1593 ft | 92 kts | 57° |
| 2026-04-15 01:14 | -27.40190 | 151.73159 | 1582 ft | 91 kts | 84° |
| 2026-04-15 01:14 | -27.40260 | 151.73641 | 1476 ft | 36 kts | 105° |
| 2026-04-15 01:14 | -27.40299 | 151.73713 | 1360 ft | 1 kts | 122° |
| 2026-04-15 01:14 | -27.40307 | 151.73730 | 1357 ft | 2 kts | 130° |
| 2026-04-15 01:15 | -27.40307 | 151.73744 | 1364 ft | 1 kts | 33° |
| 2026-04-15 01:15 | -27.40305 | 151.73748 | 1359 ft | 1 kts | 33° |
| 2026-04-15 01:15 | -27.40301 | 151.73749 | 1359 ft | 2 kts | 349° |
| 2026-04-15 01:15 | -27.40246 | 151.73717 | 1376 ft | 14 kts | 304° |
| 2026-04-15 01:16 | -27.40340 | 151.73512 | 1373 ft | 40 kts | 230° |
| 2026-04-15 01:16 | -27.40477 | 151.73295 | 1366 ft | 26 kts | 242° |
| 2026-04-15 01:16 | -27.40573 | 151.73135 | 1372 ft | 21 kts | 234° |
| 2026-04-15 01:16 | -27.40597 | 151.73103 | 1356 ft | 6 kts | 60° |
| 2026-04-15 01:17 | -27.40586 | 151.73121 | 1356 ft | 1 kts | 59° |
| 2026-04-15 01:17 | -27.40576 | 151.73134 | 1362 ft | 2 kts | 59° |
| 2026-04-15 01:17 | -27.40491 | 151.73280 | 1443 ft | 51 kts | 56° |
| 2026-04-15 01:18 | -27.40221 | 151.73715 | 1555 ft | 75 kts | 59° |
| 2026-04-15 01:18 | -27.39906 | 151.74211 | 1757 ft | 76 kts | 27° |
| 2026-04-15 01:18 | -27.39570 | 151.73931 | 1883 ft | 82 kts | 260° |
| 2026-04-15 01:18 | -27.39702 | 151.73507 | 1887 ft | 93 kts | 239° |
| 2026-04-15 01:19 | -27.40197 | 151.72652 | 1927 ft | 98 kts | 232° |
| 2026-04-15 01:19 | -27.40663 | 151.72524 | 1728 ft | 71 kts | 129° |
| 2026-04-15 01:19 | -27.40676 | 151.72971 | 1454 ft | 57 kts | 54° |
| 2026-04-15 01:19 | -27.40575 | 151.73139 | 1389 ft | 20 kts | 60° |
| 2026-04-15 01:20 | -27.40557 | 151.73165 | 1341 ft | 0 kts | 58° |
| 2026-04-15 01:22 | -27.40541 | 151.73191 | 1348 ft | 12 kts | 58° |
| 2026-04-15 01:22 | -27.40470 | 151.73305 | 1359 ft | 25 kts | 56° |
| 2026-04-15 01:22 | -27.40359 | 151.73482 | 1365 ft | 27 kts | 54° |
| 2026-04-15 01:23 | -27.40256 | 151.73644 | 1367 ft | 20 kts | 69° |
| 2026-04-15 01:23 | -27.40275 | 151.73718 | 1357 ft | 1 kts | 143° |
| 2026-04-15 01:23 | -27.40283 | 151.73725 | 1357 ft | 1 kts | 147° |
| 2026-04-15 01:23 | -27.40318 | 151.73751 | 1372 ft | 22 kts | 147° |
| 2026-04-15 01:24 | -27.40498 | 151.73892 | 1373 ft | 40 kts | 146° |
| 2026-04-15 01:24 | -27.40739 | 151.74080 | 1374 ft | 41 kts | 145° |
| 2026-04-15 01:24 | -27.40971 | 151.74261 | 1380 ft | 41 kts | 145° |
| 2026-04-15 01:24 | -27.41202 | 151.74439 | 1387 ft | 37 kts | 144° |
| 2026-04-15 01:25 | -27.41359 | 151.74563 | 1374 ft | 19 kts | 144° |
| 2026-04-15 01:25 | -27.41417 | 151.74605 | 1366 ft | 9 kts | 144° |
| 2026-04-15 01:25 | -27.41458 | 151.74633 | 1369 ft | 3 kts | 332° |
| 2026-04-15 01:25 | -27.41448 | 151.74631 | 1351 ft | 1 kts | 331° |
| 2026-04-15 01:26 | -27.41446 | 151.74629 | 1345 ft | 0 kts | 331° |
| 2026-04-15 01:27 | -27.41439 | 151.74625 | 1356 ft | 7 kts | 326° |
| 2026-04-15 01:28 | -27.41230 | 151.74462 | 1433 ft | 69 kts | 334° |
| 2026-04-15 01:28 | -27.40766 | 151.74114 | 1492 ft | 89 kts | 330° |
| 2026-04-15 01:28 | -27.40231 | 151.73701 | 1590 ft | 97 kts | 328° |
| 2026-04-15 01:28 | -27.40003 | 151.73025 | 1619 ft | 104 kts | 253° |
| 2026-04-15 01:29 | -27.40304 | 151.72283 | 1529 ft | 103 kts | 240° |
| 2026-04-15 01:29 | -27.40791 | 151.72068 | 1531 ft | 59 kts | 99° |
| 2026-04-15 01:29 | -27.40891 | 151.72406 | 1433 ft | 24 kts | 101° |
| 2026-04-15 01:29 | -27.40902 | 151.72466 | 1365 ft | 3 kts | 105° |
| 2026-04-15 01:30 | -27.40904 | 151.72478 | 1359 ft | 1 kts | 105° |
| 2026-04-15 01:30 | -27.40913 | 151.72496 | 1360 ft | 10 kts | 104° |
| 2026-04-15 01:30 | -27.40960 | 151.72791 | 1434 ft | 67 kts | 102° |
| 2026-04-15 01:30 | -27.41055 | 151.73427 | 1494 ft | 89 kts | 98° |
| 2026-04-15 01:31 | -27.41147 | 151.74046 | 1808 ft | 76 kts | 98° |
| 2026-04-15 01:31 | -27.41319 | 151.74574 | 2049 ft | 76 kts | 150° |
| 2026-04-15 01:31 | -27.41880 | 151.74532 | 2038 ft | 97 kts | 227° |
| 2026-04-15 01:31 | -27.42074 | 151.73787 | 1964 ft | 108 kts | 282° |
| 2026-04-15 01:32 | -27.41945 | 151.72951 | 1981 ft | 108 kts | 278° |
| 2026-04-15 01:32 | -27.41823 | 151.72102 | 1958 ft | 111 kts | 277° |
| 2026-04-15 01:32 | -27.41381 | 151.71493 | 1951 ft | 111 kts | 354° |
| 2026-04-15 01:32 | -27.40853 | 151.71917 | 1649 ft | 84 kts | 94° |
| 2026-04-15 01:33 | -27.40894 | 151.72372 | 1448 ft | 34 kts | 99° |
| 2026-04-15 01:33 | -27.40911 | 151.72512 | 1361 ft | 5 kts | 100° |
| 2026-04-15 01:33 | -27.40913 | 151.72517 | 1376 ft | 3 kts | 104° |
| 2026-04-15 01:33 | -27.40932 | 151.72635 | 1447 ft | 42 kts | 104° |
| 2026-04-15 01:34 | -27.41018 | 151.73159 | 1471 ft | 85 kts | 101° |
| 2026-04-15 01:34 | -27.41113 | 151.73825 | 1693 ft | 81 kts | 98° |
| 2026-04-15 01:34 | -27.41211 | 151.74447 | 1920 ft | 79 kts | 99° |
| 2026-04-15 01:34 | -27.41433 | 151.74978 | 2127 ft | 83 kts | 155° |
| 2026-04-15 01:35 | -27.41989 | 151.74882 | 2224 ft | 91 kts | 233° |
| 2026-04-15 01:35 | -27.42100 | 151.74146 | 2185 ft | 105 kts | 279° |
| 2026-04-15 01:35 | -27.41971 | 151.73316 | 2147 ft | 111 kts | 280° |
| 2026-04-15 01:35 | -27.41862 | 151.72447 | 2146 ft | 110 kts | 278° |
| 2026-04-15 01:36 | -27.41637 | 151.71640 | 2128 ft | 108 kts | 330° |
| 2026-04-15 01:36 | -27.40957 | 151.71722 | 1782 ft | 106 kts | 61° |
| 2026-04-15 01:36 | -27.40878 | 151.72276 | 1517 ft | 52 kts | 99° |
| 2026-04-15 01:36 | -27.40896 | 151.72558 | 1397 ft | 26 kts | 85° |
| 2026-04-15 01:37 | -27.40824 | 151.72735 | 1392 ft | 33 kts | 58° |
| 2026-04-15 01:37 | -27.40671 | 151.72988 | 1390 ft | 44 kts | 53° |
| 2026-04-15 01:37 | -27.40473 | 151.73304 | 1380 ft | 51 kts | 56° |
| 2026-04-15 01:37 | -27.40304 | 151.73570 | 1381 ft | 29 kts | 57° |
| 2026-04-15 01:38 | -27.40263 | 151.73705 | 1384 ft | 18 kts | 145° |
| 2026-04-15 01:38 | -27.40428 | 151.73837 | 1375 ft | 33 kts | 148° |
| 2026-04-15 01:38 | -27.40615 | 151.73982 | 1382 ft | 37 kts | 147° |
| 2026-04-15 01:38 | -27.40863 | 151.74174 | 1384 ft | 49 kts | 144° |
| 2026-04-15 01:39 | -27.41111 | 151.74369 | 1380 ft | 32 kts | 143° |
| 2026-04-15 01:39 | -27.41280 | 151.74504 | 1394 ft | 30 kts | 146° |
| 2026-04-15 01:39 | -27.41423 | 151.74607 | 1380 ft | 13 kts | 144° |
| 2026-04-15 01:39 | -27.41412 | 151.74602 | 1379 ft | 15 kts | 336° |
| 2026-04-15 01:40 | -27.41180 | 151.74436 | 1471 ft | 69 kts | 320° |
| 2026-04-15 01:40 | -27.40708 | 151.74068 | 1484 ft | 93 kts | 327° |
| 2026-04-15 01:40 | -27.40178 | 151.73669 | 1681 ft | 89 kts | 327° |
| 2026-04-15 01:40 | -27.39774 | 151.73812 | 1978 ft | 76 kts | 101° |
| 2026-04-15 01:41 | -27.40146 | 151.74281 | 2059 ft | 90 kts | 147° |
| 2026-04-15 01:41 | -27.40686 | 151.74713 | 2110 ft | 101 kts | 150° |
| 2026-04-15 01:41 | -27.41264 | 151.75085 | 2092 ft | 67 kts | 201° |
| 2026-04-15 01:41 | -27.41389 | 151.74700 | 1671 ft | 66 kts | 298° |
| 2026-04-15 01:42 | -27.41124 | 151.74386 | 1460 ft | 45 kts | 326° |
| 2026-04-15 01:42 | -27.40904 | 151.74214 | 1417 ft | 32 kts | 323° |
| 2026-04-15 01:42 | -27.40776 | 151.74111 | 1372 ft | 14 kts | 323° |
| 2026-04-15 01:42 | -27.40756 | 151.74042 | 1404 ft | 23 kts | 254° |
| 2026-04-15 01:43 | -27.40889 | 151.73813 | 1376 ft | 33 kts | 235° |
| 2026-04-15 01:43 | -27.40985 | 151.73662 | 1366 ft | 18 kts | 239° |
| 2026-04-15 01:43 | -27.41051 | 151.73555 | 1366 ft | 17 kts | 237° |
| 2026-04-15 01:43 | -27.41156 | 151.73474 | 1362 ft | 21 kts | 198° |
| 2026-04-15 01:44 | -27.41297 | 151.73449 | 1362 ft | 18 kts | 197° |
| 2026-04-15 01:44 | -27.41367 | 151.73455 | 1354 ft | 7 kts | 105° |
| 2026-04-15 01:44 | -27.41378 | 151.73506 | 1350 ft | 4 kts | 104° |
| 2026-04-15 01:44 | -27.41379 | 151.73520 | 1346 ft | 1 kts | 100° |
| 2026-04-15 01:45 | -27.41379 | 151.73521 | 1344 ft | 0 kts | 103° |